Time;durP1;ratioP1;P1;durP2;ratioP2;P2;SDS_P1;SDS_P2;PMS_P1;PMS_P2;Temp;Humidity;BMP_temperature;BMP_pressure;BME280_temperature;BME280_humidity;BME280_pressure;Samples;Min_cycle;Max_cycle;Signal;HPM_P1;HPM_P2
2022/03/27 00:00:49;;;;;;;;;17.80;15.00;;;;;15.32;40.91;100003.38;6289746;27;97524;-67
2022/03/27 00:03:52;;;;;;;;;17.00;16.00;;;;;15.32;40.74;100006.94;6289887;27;98178;-66
2022/03/27 00:06:56;;;;;;;;;17.50;16.00;;;;;15.26;40.40;100013.25;6291291;27;96732;-66
2022/03/27 00:09:59;;;;;;;;;19.00;17.00;;;;;15.22;40.24;100005.78;6290363;27;97538;-65
2022/03/27 00:13:03;;;;;;;;;15.60;14.00;;;;;15.16;40.10;100012.94;6272571;27;99463;-68
2022/03/27 00:16:08;;;;;;;;;20.00;19.00;;;;;15.24;39.96;100011.84;6264533;27;97726;-65
2022/03/27 00:19:11;;;;;;;;;19.00;16.50;;;;;15.16;40.29;100012.94;6290622;27;99556;-66
2022/03/27 00:22:14;;;;;;;;;15.50;15.00;;;;;15.07;40.10;100023.28;6291398;27;96481;-66
2022/03/27 00:25:18;;;;;;;;;16.00;15.00;;;;;14.99;39.71;100025.44;6272081;27;97539;-69
2022/03/27 00:28:23;;;;;;;;;18.00;15.00;;;;;14.93;39.20;100034.47;6283896;27;97185;-67
2022/03/27 00:31:27;;;;;;;;;9.60;8.60;;;;;14.79;33.74;100028.34;6272440;27;97764;-66
2022/03/27 00:34:31;;;;;;;;;7.40;7.40;;;;;14.71;31.21;100044.88;6291830;27;98017;-65
2022/03/27 00:37:35;;;;;;;;;9.00;7.00;;;;;14.45;30.69;100047.78;6291332;27;96869;-65
2022/03/27 00:40:38;;;;;;;;;8.20;7.20;;;;;14.30;30.32;100053.47;6288658;27;97120;-66
2022/03/27 00:43:43;;;;;;;;;7.40;7.00;;;;;14.27;31.07;100064.75;6288361;27;97574;-66
2022/03/27 00:46:47;;;;;;;;;8.00;7.00;;;;;14.17;30.92;100070.63;6290173;27;97635;-66
2022/03/27 00:49:50;;;;;;;;;7.50;7.00;;;;;14.08;30.98;100068.38;6290356;27;97500;-66
2022/03/27 00:52:53;;;;;;;;;7.50;7.50;;;;;13.94;31.29;100077.63;6290086;27;96467;-64
2022/03/27 00:55:57;;;;;;;;;7.00;7.00;;;;;13.77;31.38;100072.72;6287153;27;97607;-66
2022/03/27 00:59:01;;;;;;;;;8.25;7.25;;;;;13.69;31.43;100080.22;6293378;27;96691;-65
2022/03/27 01:02:06;;;;;;;;;8.00;7.50;;;;;13.56;31.65;100086.50;6291463;27;97511;-66
2022/03/27 01:05:13;;;;;;;;;9.00;7.00;;;;;13.53;31.84;100078.81;6272827;27;97084;-66
2022/03/27 01:09:35;;;;;;;;;5.75;5.00;;;;;13.45;31.84;100079.03;6273421;27;96698;-65
2022/03/27 01:11:39;;;;;;;;;7.40;7.00;;;;;13.33;31.68;100089.69;6274488;27;98568;-65
2022/03/27 01:14:45;;;;;;;;;7.00;6.00;;;;;13.09;31.37;100075.94;6286873;27;96655;-65
2022/03/27 01:17:48;;;;;;;;;6.00;6.00;;;;;13.00;31.42;100095.06;6263525;27;98454;-66
2022/03/27 01:20:54;;;;;;;;;7.00;6.00;;;;;12.89;31.29;100103.00;6284296;27;96612;-66
2022/03/27 01:23:58;;;;;;;;;6.25;5.00;;;;;12.50;31.28;100074.84;6271278;27;96809;-65
2022/03/27 01:27:01;;;;;;;;;7.40;5.60;;;;;12.75;31.38;100109.44;6289416;27;97073;-67
2022/03/27 01:30:05;;;;;;;;;5.50;5.50;;;;;12.61;31.36;100115.88;6268026;27;96700;-65
2022/03/27 01:33:09;;;;;;;;;6.00;5.75;;;;;12.58;31.16;100114.38;6291084;27;96504;-65
2022/03/27 01:36:21;;;;;;;;;4.60;4.60;;;;;12.51;31.37;100106.25;6254466;27;97000;-65
2022/03/27 01:39:24;;;;;;;;;6.00;4.60;;;;;12.47;31.45;100118.53;6301269;27;98047;-66
2022/03/27 01:42:28;;;;;;;;;6.00;6.00;;;;;12.29;31.33;100128.25;6291586;27;96689;-66
2022/03/27 01:45:31;;;;;;;;;6.00;5.40;;;;;12.22;31.35;100130.91;6245749;27;98730;-65
2022/03/27 01:48:35;;;;;;;;;4.00;3.00;;;;;12.15;31.20;100135.47;6269600;27;97148;-65
2022/03/27 01:51:42;;;;;;;;;5.00;4.40;;;;;12.08;31.38;100150.81;6251529;27;97947;-66
2022/03/27 01:54:45;;;;;;;;;4.25;4.00;;;;;11.99;31.51;100143.91;6269615;27;98492;-65
2022/03/27 01:57:48;;;;;;;;;6.00;4.20;;;;;11.91;31.72;100136.81;6287637;27;97062;-66
2022/03/27 02:00:51;;;;;;;;;6.00;5.00;;;;;11.85;31.83;100136.78;6285497;27;97225;-64
2022/03/27 02:03:56;;;;;;;;;4.75;3.75;;;;;11.73;31.54;100138.38;6270608;27;96902;-65
2022/03/27 02:07:01;;;;;;;;;3.20;3.00;;;;;11.67;31.76;100153.47;6271253;27;98418;-65
2022/03/27 02:10:05;;;;;;;;;4.80;4.00;;;;;11.60;31.54;100153.41;6290202;27;96326;-65
2022/03/27 02:13:13;;;;;;;;;4.00;4.00;;;;;11.52;31.54;100155.44;6289169;27;97586;-66
2022/03/27 02:16:16;;;;;;;;;5.00;5.00;;;;;11.46;31.34;100148.97;6253209;27;96811;-65
2022/03/27 02:19:20;;;;;;;;;4.25;3.25;;;;;11.44;31.12;100163.69;6289870;27;97082;-65
2022/03/27 02:22:24;;;;;;;;;3.00;3.00;;;;;11.41;31.05;100164.91;6290185;27;97622;-66
2022/03/27 02:25:28;;;;;;;;;4.00;3.40;;;;;11.30;31.02;100173.53;6270455;27;96938;-64
2022/03/27 02:28:31;;;;;;;;;4.00;4.00;;;;;11.29;31.16;100161.91;6289514;27;96478;-65
2022/03/27 02:31:34;;;;;;;;;3.00;2.60;;;;;11.21;31.15;100177.41;6270109;27;98502;-66
2022/03/27 02:34:38;;;;;;;;;4.00;4.00;;;;;11.16;31.35;100171.75;6269528;27;97820;-66
2022/03/27 02:37:42;;;;;;;;;4.00;4.00;;;;;11.14;31.38;100171.13;6288969;27;97425;-66
2022/03/27 02:40:46;;;;;;;;;4.00;3.00;;;;;11.08;31.53;100172.75;6262894;27;99606;-64
2022/03/27 02:43:50;;;;;;;;;4.60;3.00;;;;;11.01;31.65;100176.41;6256434;27;97567;-65
2022/03/27 02:46:53;;;;;;;;;3.00;2.25;;;;;10.95;31.77;100183.38;6270144;27;99721;-65
2022/03/27 02:49:57;;;;;;;;;3.00;3.00;;;;;10.90;31.74;100185.84;6288394;27;98133;-65
2022/03/27 02:53:01;;;;;;;;;4.00;3.00;;;;;10.84;31.90;100189.31;6288001;27;97111;-66
2022/03/27 02:56:06;;;;;;;;;2.80;2.00;;;;;10.78;31.94;100188.22;6269711;27;97978;-65
2022/03/27 02:59:09;;;;;;;;;2.00;2.00;;;;;10.65;32.29;100187.25;6289473;27;96450;-65
2022/03/27 03:02:13;;;;;;;;;3.00;2.00;;;;;10.52;32.59;100196.00;6271538;27;96393;-66
2022/03/27 03:05:18;;;;;;;;;3.00;2.50;;;;;10.21;32.89;100185.47;6287939;27;97060;-65
2022/03/27 03:08:22;;;;;;;;;4.00;4.00;;;;;10.24;33.05;100195.03;6284264;27;97032;-65
2022/03/27 03:11:26;;;;;;;;;4.40;3.40;;;;;10.16;33.19;100196.00;6269704;27;97127;-64
2022/03/27 03:14:30;;;;;;;;;4.00;3.00;;;;;10.14;33.18;100191.75;6272023;27;97788;-67
2022/03/27 03:17:33;;;;;;;;;4.00;3.00;;;;;10.01;33.58;100200.50;6292524;27;96944;-65
2022/03/27 03:20:38;;;;;;;;;4.60;3.00;;;;;9.92;33.85;100199.75;6264017;27;98125;-66
2022/03/27 03:23:45;;;;;;;;;3.00;3.00;;;;;9.85;33.87;100195.28;6291565;27;97401;-65
2022/03/27 03:26:49;;;;;;;;;6.00;5.40;;;;;9.81;34.07;100194.84;6292163;27;96987;-66
2022/03/27 03:29:52;;;;;;;;;5.50;5.00;;;;;9.80;34.01;100195.00;6290263;27;97078;-65
2022/03/27 03:32:55;;;;;;;;;5.00;4.40;;;;;9.79;33.88;100187.94;6293485;27;98082;-65
2022/03/27 03:35:58;;;;;;;;;4.00;3.00;;;;;9.78;33.62;100186.28;6285256;27;97654;-64
2022/03/27 03:39:04;;;;;;;;;5.00;5.00;;;;;9.80;33.76;100200.41;6292621;27;96718;-65
2022/03/27 03:42:07;;;;;;;;;6.00;5.00;;;;;9.81;33.57;100192.16;6291230;27;97458;-65
2022/03/27 03:45:11;;;;;;;;;4.60;4.00;;;;;9.78;33.71;100189.81;6291447;27;97583;-65
2022/03/27 03:48:14;;;;;;;;;5.20;5.00;;;;;9.66;34.10;100183.22;6291002;27;98119;-66
2022/03/27 03:51:17;;;;;;;;;6.00;6.00;;;;;9.68;34.08;100204.56;6263147;27;98858;-65
2022/03/27 03:54:22;;;;;;;;;5.00;5.00;;;;;9.58;34.39;100204.81;6247179;27;97094;-65
2022/03/27 03:57:25;;;;;;;;;5.40;5.00;;;;;9.54;34.29;100209.75;6269792;27;96759;-65
2022/03/27 04:00:30;;;;;;;;;5.00;4.60;;;;;9.50;34.57;100215.69;6290239;27;97533;-67
2022/03/27 04:03:34;;;;;;;;;5.40;5.40;;;;;9.46;34.54;100220.59;6291824;27;97938;-65
2022/03/27 04:06:37;;;;;;;;;3.00;3.00;;;;;9.44;34.51;100225.31;6284183;27;96787;-65
2022/03/27 04:09:42;;;;;;;;;4.40;3.60;;;;;9.40;34.74;100233.94;6275680;27;98496;-66
2022/03/27 04:12:45;;;;;;;;;5.00;4.40;;;;;9.35;34.89;100233.63;6291060;27;97640;-65
2022/03/27 04:15:48;;;;;;;;;5.00;5.00;;;;;9.31;34.86;100243.94;6271926;27;97851;-65
2022/03/27 04:18:58;;;;;;;;;4.80;4.00;;;;;9.28;35.05;100230.00;6273843;27;97154;-66
2022/03/27 04:22:01;;;;;;;;;5.00;4.60;;;;;9.25;34.79;100239.28;6289176;27;97136;-64
2022/03/27 04:25:09;;;;;;;;;5.40;4.60;;;;;9.22;34.97;100236.94;6262295;27;97797;-65
2022/03/27 04:28:14;;;;;;;;;5.00;4.40;;;;;9.14;35.20;100240.53;6267733;27;96795;-65
2022/03/27 04:31:18;;;;;;;;;5.00;4.00;;;;;9.06;35.18;100239.75;6258673;27;99551;-65
2022/03/27 04:34:21;;;;;;;;;3.00;2.80;;;;;8.97;35.43;100252.44;6265426;27;97393;-65
2022/03/27 04:37:24;;;;;;;;;6.00;5.00;;;;;8.89;35.69;100255.19;6286460;27;98020;-64
2022/03/27 04:40:29;;;;;;;;;4.00;4.00;;;;;8.85;35.80;100256.53;6289422;27;96593;-65
2022/03/27 04:43:33;;;;;;;;;5.80;4.80;;;;;8.82;35.93;100256.06;6288453;27;96606;-66
2022/03/27 04:46:36;;;;;;;;;5.00;4.40;;;;;8.75;35.87;100242.47;6277385;27;96811;-66
2022/03/27 04:49:40;;;;;;;;;5.00;5.00;;;;;8.87;35.76;100273.34;6248335;27;97213;-66
2022/03/27 04:52:43;;;;;;;;;7.00;5.00;;;;;8.90;35.68;100262.22;6280768;27;97546;-66
2022/03/27 04:55:49;;;;;;;;;3.00;3.00;;;;;8.95;35.78;100265.22;6269971;27;99699;-65
2022/03/27 04:58:52;;;;;;;;;6.40;5.40;;;;;8.86;35.71;100254.69;6289791;27;96695;-65
2022/03/27 05:01:55;;;;;;;;;7.50;6.00;;;;;9.05;35.65;100278.44;6269509;27;97785;-65
2022/03/27 05:04:59;;;;;;;;;5.50;4.50;;;;;9.06;35.16;100272.03;6289423;27;97497;-66
2022/03/27 05:08:02;;;;;;;;;5.00;4.00;;;;;9.14;35.17;100277.34;6247231;27;98507;-65
2022/03/27 05:11:06;;;;;;;;;4.75;3.00;;;;;9.21;35.10;100277.47;6281684;27;97404;-66
2022/03/27 05:14:10;;;;;;;;;6.00;5.00;;;;;9.31;35.06;100276.25;6290536;27;97566;-66
2022/03/27 05:17:13;;;;;;;;;6.00;6.00;;;;;9.41;35.19;100278.69;6289758;27;97760;-65
2022/03/27 05:20:17;;;;;;;;;7.00;5.20;;;;;9.46;35.36;100285.22;6271764;27;97730;-64
2022/03/27 05:23:20;;;;;;;;;5.40;5.40;;;;;9.53;35.56;100282.59;6290282;27;97294;-66
2022/03/27 05:26:25;;;;;;;;;8.00;7.00;;;;;9.59;35.09;100292.66;6272187;27;96803;-65
2022/03/27 05:29:28;;;;;;;;;6.00;5.00;;;;;9.51;34.76;100273.91;6271871;27;96938;-64
2022/03/27 05:32:32;;;;;;;;;6.40;6.40;;;;;9.73;35.08;100296.41;6263468;27;97146;-65
2022/03/27 05:35:35;;;;;;;;;3.75;3.00;;;;;9.90;34.86;100295.25;6287231;27;96438;-66
2022/03/27 05:38:42;;;;;;;;;6.00;6.00;;;;;9.94;34.59;100294.69;6302500;27;97051;-64
2022/03/27 05:41:46;;;;;;;;;5.50;5.50;;;;;9.95;34.49;100303.63;6289420;27;96598;-66
2022/03/27 05:44:50;;;;;;;;;6.00;6.00;;;;;10.06;34.43;100297.78;6287417;27;96773;-65
2022/03/27 05:47:53;;;;;;;;;6.00;5.00;;;;;10.20;34.65;100309.63;6255673;27;97433;-66
2022/03/27 05:50:57;;;;;;;;;6.25;6.00;;;;;10.41;34.12;100312.41;6289019;27;96378;-66
2022/03/27 05:54:00;;;;;;;;;4.20;4.00;;;;;10.60;33.34;100316.44;6271444;27;96583;-65
2022/03/27 05:57:05;;;;;;;;;6.00;5.00;;;;;10.86;32.82;100322.16;6290842;27;96554;-66
2022/03/27 06:00:12;;;;;;;;;6.25;6.00;;;;;11.03;32.12;100320.09;6288521;27;97636;-65
2022/03/27 06:03:18;;;;;;;;;6.00;5.40;;;;;11.24;32.39;100331.75;6290298;27;97475;-66
2022/03/27 06:06:22;;;;;;;;;6.50;6.00;;;;;11.45;32.29;100343.59;6276993;27;96757;-66
2022/03/27 06:09:25;;;;;;;;;5.00;4.00;;;;;11.58;32.27;100338.34;6289328;27;97538;-65
2022/03/27 06:12:30;;;;;;;;;6.50;5.00;;;;;11.82;31.80;100337.16;6271181;27;99618;-66
2022/03/27 06:15:34;;;;;;;;;4.00;4.00;;;;;11.90;31.83;100335.13;6276817;27;97387;-65
2022/03/27 06:18:37;;;;;;;;;4.60;4.00;;;;;12.23;31.31;100348.06;6281978;27;97488;-66
2022/03/27 06:21:40;;;;;;;;;6.00;6.00;;;;;12.46;30.30;100338.66;6282285;27;98716;-66
2022/03/27 06:24:44;;;;;;;;;5.00;4.75;;;;;12.70;30.13;100337.34;6267933;27;97513;-65
2022/03/27 06:27:49;;;;;;;;;5.00;4.00;;;;;13.02;29.57;100339.38;6280004;27;96644;-65
2022/03/27 06:30:52;;;;;;;;;6.25;6.00;;;;;13.27;29.26;100344.28;6255450;27;97519;-65
2022/03/27 06:33:55;;;;;;;;;5.00;5.00;;;;;13.46;29.02;100340.78;6262625;27;97898;-65
2022/03/27 06:36:59;;;;;;;;;4.40;4.40;;;;;13.65;28.44;100339.16;6283171;27;97372;-65
2022/03/27 06:40:03;;;;;;;;;5.00;5.00;;;;;13.89;28.43;100342.09;6286536;27;97477;-66
2022/03/27 06:43:08;;;;;;;;;5.00;5.00;;;;;14.18;27.95;100346.25;6250642;27;98369;-65
2022/03/27 06:46:16;;;;;;;;;5.80;5.00;;;;;14.30;27.21;100325.59;6277126;27;96524;-66
2022/03/27 06:49:20;;;;;;;;;5.00;4.50;;;;;14.74;27.04;100352.06;6250384;27;96890;-65
2022/03/27 06:52:25;;;;;;;;;6.00;4.40;;;;;15.06;26.73;100352.16;6284455;27;98046;-65
2022/03/27 06:55:29;;;;;;;;;4.50;4.00;;;;;15.24;26.02;100356.91;6273682;27;97601;-65
2022/03/27 06:58:33;;;;;;;;;5.40;4.40;;;;;15.39;26.09;100361.00;6285470;27;96509;-65
2022/03/27 07:04:58;;;;;;;;;6.50;4.00;;;;;15.89;25.05;100369.28;6248311;27;98911;-67
2022/03/27 07:08:01;;;;;;;;;4.60;4.60;;;;;16.13;24.39;100367.63;6272826;27;99094;-65
2022/03/27 07:11:05;;;;;;;;;6.00;5.00;;;;;16.44;24.09;100370.28;6287171;27;97064;-65
2022/03/27 07:14:12;;;;;;;;;5.00;3.00;;;;;16.78;23.34;100368.91;6285638;27;97592;-66
2022/03/27 07:17:17;;;;;;;;;4.20;4.20;;;;;17.16;23.21;100374.97;6287259;27;96547;-65
2022/03/27 07:20:24;;;;;;;;;4.00;4.00;;;;;17.48;22.79;100364.72;6269865;27;96949;-65
2022/03/27 07:23:28;;;;;;;;;3.40;3.00;;;;;17.79;20.59;100371.84;6287542;27;97595;-65
2022/03/27 07:26:31;;;;;;;;;2.50;2.50;;;;;18.24;19.57;100371.34;6253368;27;97791;-65
2022/03/27 07:29:37;;;;;;;;;3.25;3.00;;;;;18.40;19.25;100366.03;6288176;27;96985;-67
2022/03/27 07:32:41;;;;;;;;;2.20;2.00;;;;;18.31;18.03;100374.81;6271123;27;97344;-66
2022/03/27 07:35:44;;;;;;;;;3.50;3.50;;;;;18.45;18.64;100381.69;6288191;27;97098;-66
2022/03/27 07:38:47;;;;;;;;;2.00;1.00;;;;;18.98;18.10;100382.41;6269624;27;97446;-67
2022/03/27 07:41:51;;;;;;;;;2.60;1.60;;;;;19.39;17.09;100396.94;6252131;27;98015;-65
2022/03/27 07:44:55;;;;;;;;;3.00;3.00;;;;;19.69;15.84;100394.00;6260789;27;99767;-65
2022/03/27 07:47:59;;;;;;;;;3.00;1.60;;;;;19.90;15.56;100394.13;6264351;27;96974;-65
2022/03/27 07:51:04;;;;;;;;;3.00;2.60;;;;;20.23;15.91;100395.25;6287724;27;96743;-66
2022/03/27 07:54:07;;;;;;;;;1.00;1.00;;;;;20.29;15.76;100380.56;6285367;27;97590;-66
2022/03/27 07:57:10;;;;;;;;;3.00;2.00;;;;;20.77;15.77;100401.06;6279633;27;97472;-66
2022/03/27 08:00:16;;;;;;;;;2.00;2.00;;;;;21.02;15.15;100401.41;6289558;27;96725;-68
2022/03/27 08:03:20;;;;;;;;;3.00;2.40;;;;;21.13;14.77;100405.97;6273152;27;96664;-67
2022/03/27 08:06:24;;;;;;;;;2.00;2.00;;;;;21.39;14.70;100399.75;6273800;27;99430;-65
2022/03/27 08:09:27;;;;;;;;;2.00;2.00;;;;;21.86;13.69;100402.75;6291827;27;97665;-65
2022/03/27 08:12:31;;;;;;;;;1.40;0.80;;;;;22.30;13.36;100406.22;6273432;27;98204;-65
2022/03/27 08:15:36;;;;;;;;;3.00;2.60;;;;;22.45;12.63;100400.00;6291062;27;96967;-65
2022/03/27 08:18:39;;;;;;;;;2.60;2.00;;;;;22.76;12.28;100401.09;6291433;27;97474;-65
2022/03/27 08:21:46;;;;;;;;;2.00;1.50;;;;;23.05;11.77;100396.88;6272247;27;97549;-66
2022/03/27 08:24:49;;;;;;;;;1.00;0.00;;;;;23.26;10.89;100392.31;6290456;27;97430;-66
2022/03/27 08:27:51;;;;;;;;;1.00;1.00;;;;;23.48;10.98;100395.72;6286459;27;98715;-67
2022/03/27 08:30:56;;;;;;;;;1.00;1.00;;;;;23.66;10.89;100392.47;6287718;27;97527;-67
2022/03/27 08:34:00;;;;;;;;;2.00;2.00;;;;;23.79;10.89;100373.78;6267442;27;97788;-66
2022/03/27 08:37:05;;;;;;;;;1.00;1.00;;;;;24.09;10.88;100387.59;6285267;27;97556;-66
2022/03/27 08:40:09;;;;;;;;;2.00;2.00;;;;;24.38;10.71;100390.66;6256611;27;97239;-68
2022/03/27 08:43:14;;;;;;;;;2.50;2.50;;;;;24.65;10.64;100390.34;6285242;27;96967;-67
2022/03/27 08:46:19;;;;;;;;;2.60;2.60;;;;;24.65;10.26;100384.84;6287536;27;97533;-68
2022/03/27 08:49:34;;;;;;;;;1.80;1.80;;;;;24.86;10.60;100387.28;6287583;27;97170;-67
2022/03/27 08:52:54;;;;;;;;;1.00;1.00;;;;;25.00;10.12;100385.63;6286202;27;97925;-67
2022/03/27 08:56:00;;;;;;;;;1.60;1.00;;;;;24.98;9.24;100371.28;6289778;27;96688;-66
2022/03/27 08:59:08;;;;;;;;;1.60;1.00;;;;;24.98;10.16;100371.28;6290172;27;96993;-65
2022/03/27 09:02:14;;;;;;;;;2.00;2.00;;;;;25.23;10.00;100364.84;6271889;27;96913;-67
2022/03/27 09:05:20;;;;;;;;;0.00;0.00;;;;;25.47;10.04;100359.47;6272525;27;96680;-67
2022/03/27 09:08:24;;;;;;;;;2.00;2.00;;;;;25.93;9.98;100362.00;6289603;27;96776;-66
2022/03/27 09:11:31;;;;;;;;;1.00;1.00;;;;;25.72;9.65;100355.78;6275676;27;98602;-66
2022/03/27 09:14:35;;;;;;;;;2.00;1.00;;;;;25.77;9.88;100358.50;6269495;27;97519;-66
2022/03/27 09:18:01;;;;;;;;;2.00;2.00;;;;;26.09;10.08;100355.25;6302801;27;97459;-67
2022/03/27 09:21:05;;;;;;;;;2.00;2.00;;;;;26.17;9.34;100349.09;6297943;27;97073;-67
2022/03/27 09:24:08;;;;;;;;;2.00;1.00;;;;;26.32;9.18;100346.25;6278732;27;97494;-67
2022/03/27 09:27:16;;;;;;;;;1.00;1.00;;;;;26.39;9.26;100343.16;6290277;27;97458;-66
2022/03/27 09:30:19;;;;;;;;;1.00;1.00;;;;;26.74;9.20;100334.47;6290232;27;96944;-66
2022/03/27 09:33:46;;;;;;;;;1.00;1.00;;;;;27.08;9.73;100317.75;6290120;27;96806;-67
2022/03/27 09:36:50;;;;;;;;;1.00;1.00;;;;;27.00;8.67;100344.16;6272008;27;96843;-66
2022/03/27 09:39:55;;;;;;;;;0.33;0.33;;;;;26.51;8.40;100343.56;6316310;27;97471;-65
2022/03/27 09:43:11;;;;;;;;;1.00;1.00;;;;;26.34;9.07;100349.50;6311819;27;97473;-67
2022/03/27 09:46:14;;;;;;;;;1.00;1.00;;;;;26.63;9.37;100349.53;6290718;27;97427;-67
2022/03/27 09:49:21;;;;;;;;;2.40;2.00;;;;;26.78;8.93;100340.25;6290181;27;97398;-66
2022/03/27 09:52:25;;;;;;;;;1.20;1.20;;;;;26.87;8.58;100335.75;6290179;27;97473;-67
2022/03/27 09:55:28;;;;;;;;;2.00;2.00;;;;;26.84;9.31;100345.41;6289967;27;96753;-66
2022/03/27 09:58:36;;;;;;;;;2.00;2.00;;;;;26.49;8.54;100343.00;6289896;27;97734;-66
2022/03/27 10:01:39;;;;;;;;;3.00;3.00;;;;;26.37;9.32;100348.97;6289891;27;97411;-66
2022/03/27 10:04:57;;;;;;;;;3.00;3.00;;;;;26.51;9.13;100330.56;6289400;27;97602;-66
2022/03/27 10:08:01;;;;;;;;;1.00;1.00;;;;;26.85;9.38;100351.78;6289729;27;96710;-67
2022/03/27 10:11:05;;;;;;;;;2.20;2.00;;;;;27.32;8.73;100334.38;6289177;27;97474;-67
2022/03/27 10:14:10;;;;;;;;;2.00;2.00;;;;;27.33;8.47;100328.50;6270468;27;98766;-67
2022/03/27 10:17:14;;;;;;;;;1.20;1.00;;;;;27.45;8.54;100325.31;6270846;27;97414;-64
2022/03/27 10:20:22;;;;;;;;;1.20;1.00;;;;;27.80;8.65;100324.00;6279936;27;97467;-65
2022/03/27 10:23:28;;;;;;;;;1.00;1.00;;;;;27.56;8.62;100315.78;6266476;27;97533;-67
2022/03/27 10:26:33;;;;;;;;;1.00;1.00;;;;;26.88;9.07;100313.28;6270665;27;98700;-67
2022/03/27 10:29:39;;;;;;;;;2.00;2.00;;;;;27.03;9.57;100317.81;6253274;27;98557;-67
2022/03/27 10:32:44;;;;;;;;;1.20;1.20;;;;;27.36;9.36;100305.78;6280952;27;97556;-68
2022/03/27 10:35:56;;;;;;;;;1.25;1.25;;;;;27.71;8.96;100311.94;6267896;27;97147;-68
2022/03/27 10:39:10;;;;;;;;;1.00;1.00;;;;;27.93;8.78;100307.41;6288608;27;96532;-70
2022/03/27 10:42:20;;;;;;;;;1.00;1.00;;;;;27.97;8.41;100302.09;6252162;27;97571;-65
2022/03/27 10:45:24;;;;;;;;;2.00;2.00;;;;;28.17;8.88;100306.50;6274659;27;97011;-66
2022/03/27 10:48:37;;;;;;;;;3.00;3.00;;;;;28.37;8.14;100303.38;6263444;27;96400;-67
2022/03/27 10:51:43;;;;;;;;;3.00;3.00;;;;;28.23;7.92;100297.81;6285938;27;96906;-67
2022/03/27 10:54:58;;;;;;;;;2.00;2.00;;;;;28.18;8.46;100295.13;6288559;27;96450;-66
2022/03/27 10:58:01;;;;;;;;;2.00;2.00;;;;;28.23;8.65;100297.81;6269557;27;99364;-66
2022/03/27 11:01:07;;;;;;;;;2.00;1.00;;;;;28.11;8.02;100285.50;6269046;27;98412;-66
2022/03/27 11:04:13;;;;;;;;;1.00;1.00;;;;;28.12;8.21;100276.91;6280151;27;97573;-67
2022/03/27 11:07:22;;;;;;;;;2.00;2.00;;;;;28.01;8.30;100281.78;6279603;27;97441;-68
2022/03/27 11:10:41;;;;;;;;;3.00;3.00;;;;;28.15;8.48;100283.81;6284244;27;97428;-66
2022/03/27 11:13:45;;;;;;;;;1.00;1.00;;;;;28.40;8.39;100278.59;6248065;27;97223;-66
2022/03/27 11:17:15;;;;;;;;;2.00;1.60;;;;;28.39;7.81;100262.28;6269603;27;97597;-67
2022/03/27 11:20:47;;;;;;;;;1.50;1.50;;;;;28.36;8.38;100258.16;6270191;27;97727;-68
2022/03/27 11:23:52;;;;;;;;;1.00;1.00;;;;;27.73;7.63;100255.09;6289065;27;96563;-67
2022/03/27 11:26:55;;;;;;;;;2.00;1.40;;;;;27.77;7.81;100247.81;6276573;27;96597;-68
2022/03/27 11:30:11;;;;;;;;;2.00;2.00;;;;;27.89;8.33;100244.56;6270029;27;96647;-67
2022/03/27 11:33:16;;;;;;;;;3.00;2.00;;;;;27.95;8.41;100251.69;6269903;27;96882;-66
2022/03/27 11:36:24;;;;;;;;;1.00;1.00;;;;;27.82;8.09;100239.41;6248964;27;96666;-67
2022/03/27 11:39:37;;;;;;;;;3.00;2.25;;;;;27.32;8.24;100237.44;6250078;27;98790;-67
2022/03/27 11:42:40;;;;;;;;;1.00;1.00;;;;;26.96;9.04;100226.03;6265728;27;98001;-67
2022/03/27 11:45:45;;;;;;;;;2.00;2.00;;;;;27.12;8.36;100214.44;6262460;27;97800;-67
2022/03/27 11:48:54;;;;;;;;;2.00;2.00;;;;;27.02;8.63;100224.84;6273345;27;98317;-68
2022/03/27 11:52:08;;;;;;;;;4.00;3.00;;;;;26.64;9.09;100216.44;6290216;27;98316;-68
2022/03/27 11:55:14;;;;;;;;;3.20;2.20;;;;;26.52;8.52;100202.22;6296719;27;97156;-70
2022/03/27 11:58:20;;;;;;;;;3.00;3.00;;;;;26.44;8.87;100155.84;6253285;27;99729;-68
2022/03/27 12:01:25;;;;;;;;;4.00;4.00;;;;;26.70;8.58;100203.38;6275208;27;97986;-68
2022/03/27 12:04:29;;;;;;;;;2.60;2.60;;;;;26.72;9.35;100201.16;6271901;27;100600;-68
2022/03/27 12:07:52;;;;;;;;;3.00;3.00;;;;;26.90;8.65;100192.06;6282667;27;97466;-69
2022/03/27 12:10:57;;;;;;;;;2.00;2.00;;;;;26.21;8.88;100187.91;6290202;27;97597;-69
2022/03/27 12:14:10;;;;;;;;;1.00;1.00;;;;;26.01;9.42;100187.25;6269536;27;97021;-69
2022/03/27 12:17:13;;;;;;;;;1.00;1.00;;;;;26.35;9.59;100178.91;6269601;27;96802;-68
2022/03/27 12:20:16;;;;;;;;;1.75;1.75;;;;;26.30;8.79;100172.31;6272229;27;97908;-70
2022/03/27 12:23:22;;;;;;;;;1.80;1.80;;;;;26.26;9.24;100168.50;6272104;27;98045;-68
2022/03/27 12:29:52;;;;;;;;;2.00;2.00;;;;;25.37;9.58;100160.75;6291371;27;97530;-68
2022/03/27 12:32:56;;;;;;;;;2.00;2.00;;;;;25.32;9.64;100117.44;6260495;27;97739;-68
2022/03/27 12:36:06;;;;;;;;;3.00;2.75;;;;;25.65;9.32;100150.88;6271292;27;96672;-69
2022/03/27 12:39:13;;;;;;;;;3.00;2.00;;;;;25.86;9.50;100147.63;6269052;27;97732;-69
2022/03/27 12:42:35;;;;;;;;;2.00;2.00;;;;;26.05;9.51;100147.69;6266718;27;97967;-68
2022/03/27 12:45:41;;;;;;;;;3.00;2.50;;;;;26.06;9.26;100137.47;6264767;27;99692;-68
2022/03/27 12:48:57;;;;;;;;;2.00;2.00;;;;;26.07;9.39;100137.19;6254398;27;98116;-68
2022/03/27 12:52:01;;;;;;;;;2.00;2.00;;;;;25.95;9.30;100136.75;6290589;27;96677;-68
2022/03/27 12:55:06;;;;;;;;;3.00;3.00;;;;;25.77;9.15;100134.72;6292367;27;96872;-69
2022/03/27 12:58:12;;;;;;;;;1.00;1.00;;;;;25.55;8.86;100126.13;6292900;27;96412;-70
2022/03/27 13:01:18;;;;;;;;;3.00;2.00;;;;;25.55;9.24;100120.59;6274419;27;99437;-70
2022/03/27 13:04:22;;;;;;;;;2.00;2.00;;;;;25.33;9.38;100118.25;6294587;27;96814;-69
2022/03/27 13:07:57;;;;;;;;;3.00;2.50;;;;;25.23;9.70;100119.16;6275343;27;99691;-69
2022/03/27 13:11:02;;;;;;;;;2.00;2.00;;;;;25.29;9.99;100111.69;6291227;27;96661;-69
2022/03/27 13:14:07;;;;;;;;;3.00;2.00;;;;;25.25;10.15;100114.19;6256076;27;97086;-69
2022/03/27 13:17:15;;;;;;;;;2.60;2.40;;;;;25.14;10.32;100120.91;6264143;27;98080;-69
2022/03/27 13:20:30;;;;;;;;;2.40;2.40;;;;;25.40;10.10;100114.06;6292985;27;97217;-68
2022/03/27 13:23:33;;;;;;;;;3.00;2.00;;;;;25.42;9.81;100109.06;6294899;27;96921;-69
2022/03/27 13:26:37;;;;;;;;;2.00;1.00;;;;;25.22;10.21;100108.41;6288757;27;97582;-68
2022/03/27 13:29:42;;;;;;;;;3.00;3.00;;;;;25.26;10.04;100115.03;6271251;27;97137;-70
2022/03/27 13:32:46;;;;;;;;;2.60;2.00;;;;;25.09;9.80;100115.41;6292182;27;96431;-68
2022/03/27 13:35:49;;;;;;;;;2.50;2.50;;;;;25.12;10.10;100111.28;6251640;27;98520;-69
2022/03/27 13:38:53;;;;;;;;;4.00;3.00;;;;;24.79;9.64;100096.28;6291217;27;99027;-69
2022/03/27 13:45:21;;;;;;;;;2.00;1.60;;;;;23.77;10.30;100079.38;6253834;27;96379;-70
2022/03/27 13:48:25;;;;;;;;;1.25;1.25;;;;;23.89;10.27;100088.16;6272995;27;96901;-69
2022/03/27 13:51:28;;;;;;;;;3.00;3.00;;;;;23.94;10.92;100087.31;6289937;27;97646;-69
2022/03/27 13:54:31;;;;;;;;;3.00;3.00;;;;;24.14;10.55;100078.97;6290910;27;97267;-70
2022/03/27 13:57:35;;;;;;;;;3.00;3.00;;;;;24.19;10.92;100080.91;6289773;27;97635;-70
2022/03/27 14:00:40;;;;;;;;;2.00;1.60;;;;;24.32;11.06;100081.13;6247564;27;97684;-67
2022/03/27 14:03:43;;;;;;;;;2.00;2.00;;;;;24.31;11.19;100073.13;6289097;27;97030;-69
2022/03/27 14:06:47;;;;;;;;;2.80;2.80;;;;;24.49;10.88;100073.31;6268704;27;98624;-70
2022/03/27 14:09:50;;;;;;;;;3.40;3.40;;;;;24.59;11.08;100064.97;6268141;27;96729;-68
2022/03/27 14:12:58;;;;;;;;;3.00;3.00;;;;;24.19;10.22;100053.38;6271411;27;98110;-68
2022/03/27 14:16:03;;;;;;;;;4.00;4.00;;;;;23.54;10.95;100053.28;6272203;27;97553;-69
2022/03/27 14:19:07;;;;;;;;;3.00;2.00;;;;;23.44;11.07;100052.44;6257009;27;97663;-68
2022/03/27 14:22:10;;;;;;;;;4.00;3.00;;;;;23.68;11.13;100046.06;6245956;27;98397;-68
2022/03/27 14:25:15;;;;;;;;;3.20;3.00;;;;;23.79;10.95;100044.13;6269182;27;97491;-68
2022/03/27 14:28:18;;;;;;;;;3.00;3.00;;;;;23.80;11.24;100029.22;6291098;27;97484;-67
2022/03/27 14:31:23;;;;;;;;;2.40;2.00;;;;;24.02;10.72;100050.91;6287135;27;97513;-68
2022/03/27 14:34:27;;;;;;;;;2.40;2.40;;;;;24.06;10.75;100041.81;6288378;27;97011;-68
2022/03/27 14:37:30;;;;;;;;;2.20;2.00;;;;;24.09;11.01;100041.22;6285286;27;97405;-69